createdAt,value
2018-04-15T00:02:15.442Z,11.20
2018-04-15T00:04:43.886Z,11.30
2018-04-15T00:07:12.250Z,11.30
2018-04-15T00:09:40.497Z,11.30
2018-04-15T00:12:08.687Z,11.30
2018-04-15T00:14:37.734Z,11.30
2018-04-15T00:17:06.757Z,11.40
2018-04-15T00:19:35.794Z,11.40
2018-04-15T00:22:04.020Z,11.40
2018-04-15T00:24:32.248Z,11.40
2018-04-15T00:27:00.437Z,11.40
2018-04-15T00:29:28.831Z,11.40
2018-04-15T00:31:57.054Z,11.40
2018-04-15T00:34:25.291Z,11.50
2018-04-15T00:36:54.117Z,11.50
2018-04-15T00:39:22.330Z,11.60
2018-04-15T00:41:50.568Z,11.60
2018-04-15T00:44:18.785Z,11.50
2018-04-15T00:46:47.102Z,11.60
2018-04-15T00:49:16.671Z,11.40
2018-04-15T00:51:45.702Z,11.40
2018-04-15T00:54:18.583Z,11.40
2018-04-15T00:56:48.283Z,11.50
2018-04-15T00:59:16.547Z,11.50
2018-04-15T01:01:44.736Z,11.50
2018-04-15T01:04:12.914Z,11.40
2018-04-15T01:06:41.896Z,11.30
2018-04-15T01:09:10.078Z,11.20
2018-04-15T01:11:38.275Z,11.20
2018-04-15T01:14:06.486Z,11.10
2018-04-15T01:16:34.785Z,11.00
2018-04-15T01:19:03.020Z,11.00
2018-04-15T01:21:31.434Z,11.00
2018-04-15T01:23:59.843Z,10.90
2018-04-15T01:26:28.045Z,10.90
2018-04-15T01:28:56.712Z,10.80
2018-04-15T01:31:25.754Z,10.70
2018-04-15T01:33:54.020Z,10.60
2018-04-15T01:36:23.257Z,10.60
2018-04-15T01:38:51.481Z,10.60
2018-04-15T01:41:19.847Z,10.60
2018-04-15T01:43:48.216Z,10.60
2018-04-15T01:46:17.208Z,10.50
2018-04-15T01:48:45.411Z,10.50
2018-04-15T01:51:13.615Z,10.40
2018-04-15T01:53:42.024Z,10.20
2018-04-15T01:56:10.297Z,10.10
2018-04-15T01:58:39.323Z,9.90
2018-04-15T02:01:08.321Z,9.90
2018-04-15T02:03:37.345Z,9.80
2018-04-15T02:06:05.666Z,9.80
2018-04-15T02:08:34.052Z,9.80
2018-04-15T02:11:03.034Z,9.80
2018-04-15T02:13:31.274Z,9.80
2018-04-15T02:16:00.312Z,10.10
2018-04-15T02:18:28.593Z,10.00
2018-04-15T02:20:56.807Z,10.00
2018-04-15T02:23:25.135Z,10.00
2018-04-15T02:25:53.324Z,10.10
2018-04-15T02:28:21.528Z,10.10
2018-04-15T02:30:49.877Z,10.30
2018-04-15T02:33:18.160Z,10.40
2018-04-15T02:35:46.479Z,10.40
2018-04-15T02:38:17.070Z,10.60
2018-04-15T02:40:45.273Z,10.60
2018-04-15T02:43:14.440Z,10.70
2018-04-15T02:45:42.671Z,10.70
2018-04-15T02:48:12.577Z,10.80
2018-04-15T02:50:41.083Z,10.80
2018-04-15T02:53:09.352Z,10.80
2018-04-15T02:55:37.688Z,10.90
2018-04-15T02:58:05.947Z,11.00
2018-04-15T03:00:34.202Z,11.00
2018-04-15T03:03:02.476Z,11.00
2018-04-15T03:05:30.810Z,11.10
2018-04-15T03:07:59.056Z,11.10
2018-04-15T03:10:27.348Z,11.00
2018-04-15T03:12:55.558Z,11.00
2018-04-15T03:15:24.728Z,11.00
2018-04-15T03:17:52.958Z,11.00
2018-04-15T03:20:21.714Z,11.10
2018-04-15T03:22:50.065Z,11.10
2018-04-15T03:25:18.265Z,11.10
2018-04-15T03:27:47.333Z,11.10
2018-04-15T03:30:15.533Z,11.10
2018-04-15T03:32:43.773Z,11.10
2018-04-15T03:35:12.172Z,11.10
2018-04-15T03:37:41.355Z,11.10
2018-04-15T03:40:09.768Z,11.00
2018-04-15T03:42:38.212Z,11.00
2018-04-15T03:45:06.627Z,11.00
2018-04-15T03:47:34.995Z,11.10
2018-04-15T03:50:03.375Z,11.20
2018-04-15T03:52:31.759Z,11.10
2018-04-15T03:55:00.241Z,11.10
2018-04-15T03:57:28.501Z,11.00
2018-04-15T03:59:56.710Z,11.00
2018-04-15T04:02:24.930Z,11.00
2018-04-15T04:04:53.161Z,11.00
2018-04-15T04:07:21.524Z,11.00
2018-04-15T04:09:50.018Z,11.00
2018-04-15T04:12:18.252Z,11.00
2018-04-15T04:14:47.198Z,11.10
2018-04-15T04:17:16.252Z,11.10
2018-04-15T04:19:56.560Z,11.10
2018-04-15T04:25:43.550Z,11.20
2018-04-15T04:28:11.807Z,11.20
2018-04-15T04:30:41.547Z,11.20
2018-04-15T04:33:09.798Z,11.20
2018-04-15T04:35:38.816Z,11.10
2018-04-15T04:38:07.036Z,11.10
2018-04-15T04:40:36.152Z,11.00
2018-04-15T04:43:05.406Z,11.00
2018-04-15T04:45:33.636Z,11.00
2018-04-15T04:48:02.066Z,11.00
2018-04-15T04:50:30.466Z,10.90
2018-04-15T04:52:58.741Z,10.80
2018-04-15T04:55:27.135Z,10.80
2018-04-15T04:57:55.489Z,10.80
2018-04-15T05:00:23.971Z,10.80
2018-04-15T05:02:52.267Z,10.70
2018-04-15T05:05:20.598Z,10.70
2018-04-15T05:07:48.907Z,10.70
2018-04-15T05:10:17.288Z,10.60
2018-04-15T05:12:46.621Z,10.50
2018-04-15T05:15:15.840Z,10.50
2018-04-15T05:17:44.111Z,10.50
2018-04-15T05:20:13.342Z,10.60
2018-04-15T05:22:41.750Z,10.60
2018-04-15T05:25:10.136Z,10.60
2018-04-15T05:27:38.729Z,10.60
2018-04-15T05:30:07.817Z,10.60
2018-04-15T05:32:36.219Z,10.60
2018-04-15T05:35:05.393Z,10.70
2018-04-15T05:37:33.789Z,10.70
2018-04-15T05:40:02.129Z,10.70
2018-04-15T05:42:30.533Z,10.80
2018-04-15T05:44:59.920Z,10.80
2018-04-15T05:47:28.506Z,10.80
2018-04-15T05:49:56.734Z,10.90
2018-04-15T05:52:25.942Z,11.00
2018-04-15T05:54:54.285Z,11.00
2018-04-15T05:57:22.677Z,11.00
2018-04-15T05:59:50.972Z,11.00
2018-04-15T06:02:19.999Z,11.10
2018-04-15T06:04:48.342Z,11.10
2018-04-15T06:07:17.485Z,11.20
2018-04-15T06:09:48.140Z,11.20
2018-04-15T06:12:16.843Z,11.20
2018-04-15T06:14:45.104Z,11.30
2018-04-15T06:17:13.598Z,11.40
2018-04-15T06:19:42.181Z,11.50
2018-04-15T06:22:11.322Z,11.60
2018-04-15T06:24:39.787Z,11.60
2018-04-15T06:27:08.142Z,11.60
2018-04-15T06:29:36.747Z,11.70
2018-04-15T06:32:05.227Z,11.80
2018-04-15T06:34:34.315Z,12.10
2018-04-15T06:37:03.389Z,12.20
2018-04-15T06:39:31.698Z,12.10
2018-04-15T06:42:00.730Z,12.30
2018-04-15T06:44:29.765Z,12.20
2018-04-15T06:46:58.060Z,12.20
2018-04-15T06:49:27.219Z,12.20
2018-04-15T06:51:55.575Z,12.30
2018-04-15T06:54:24.569Z,12.30
2018-04-15T06:56:53.551Z,12.30
2018-04-15T06:59:22.166Z,12.20
2018-04-15T07:01:50.442Z,12.30
2018-04-15T07:04:19.442Z,12.50
2018-04-15T07:06:48.043Z,12.40
2018-04-15T07:09:16.298Z,12.50
2018-04-15T07:11:44.744Z,12.50
2018-04-15T07:14:14.499Z,12.40
2018-04-15T07:16:43.696Z,12.40
2018-04-15T07:19:12.707Z,12.50
2018-04-15T07:21:41.946Z,12.50
2018-04-15T07:24:10.966Z,12.60
2018-04-15T07:26:39.323Z,12.50
2018-04-15T07:29:07.633Z,12.60
2018-04-15T07:31:36.637Z,12.60
2018-04-15T07:34:05.165Z,12.60
2018-04-15T07:36:33.500Z,12.70
2018-04-15T07:39:02.499Z,12.80
2018-04-15T07:41:30.758Z,12.80
2018-04-15T07:44:00.354Z,12.80
2018-04-15T07:46:29.420Z,12.80
2018-04-15T07:48:57.684Z,12.80
2018-04-15T07:51:26.786Z,12.90
2018-04-15T07:53:55.110Z,12.90
2018-04-15T07:56:23.546Z,13.00
2018-04-15T07:58:51.758Z,13.10
2018-04-15T08:01:20.096Z,13.20
2018-04-15T08:03:48.330Z,13.40
2018-04-15T08:06:17.333Z,13.80
2018-04-15T08:08:46.062Z,13.80
2018-04-15T08:11:14.344Z,13.80
2018-04-15T08:13:42.624Z,13.90
2018-04-15T08:16:10.975Z,13.90
2018-04-15T08:18:39.240Z,14.00
2018-04-15T08:21:07.470Z,14.10
2018-04-15T08:23:36.954Z,14.30
2018-04-15T08:26:05.242Z,14.60
2018-04-15T08:28:33.717Z,14.80
2018-04-15T08:31:02.027Z,15.10
2018-04-15T08:33:30.358Z,15.30
2018-04-15T08:35:58.754Z,15.40
2018-04-15T08:38:27.009Z,15.50
2018-04-15T08:40:55.483Z,15.50
2018-04-15T08:43:24.444Z,15.80
2018-04-15T08:45:52.649Z,15.80
2018-04-15T08:48:21.657Z,16.00
2018-04-15T08:50:50.065Z,15.90
2018-04-15T08:53:18.319Z,16.10
2018-04-15T08:55:47.631Z,15.80
2018-04-15T08:58:15.886Z,15.80
2018-04-15T09:00:44.246Z,15.80
2018-04-15T09:03:13.295Z,15.70
2018-04-15T09:05:41.875Z,15.70
2018-04-15T09:08:10.113Z,15.80
2018-04-15T09:10:39.180Z,16.00
2018-04-15T09:13:08.179Z,16.10
2018-04-15T09:15:37.948Z,16.20
2018-04-15T09:18:06.222Z,16.20
2018-04-15T09:20:34.481Z,16.40
2018-04-15T09:23:02.724Z,16.60
2018-04-15T09:25:31.010Z,16.70
2018-04-15T09:27:59.245Z,16.80
2018-04-15T09:30:27.508Z,17.00
2018-04-15T09:32:55.757Z,16.90
2018-04-15T09:35:23.973Z,16.70
2018-04-15T09:37:52.217Z,16.80
2018-04-15T09:43:24.686Z,17.10
2018-04-15T09:45:52.881Z,17.10
2018-04-15T09:48:21.977Z,17.60
2018-04-15T09:50:51.951Z,17.80
2018-04-15T09:53:20.217Z,17.80
2018-04-15T09:55:48.517Z,17.90
2018-04-15T09:58:17.537Z,17.90
2018-04-15T10:00:47.512Z,17.80
2018-04-15T10:03:16.144Z,17.80
2018-04-15T10:05:44.437Z,17.80
2018-04-15T10:08:12.692Z,17.80
2018-04-15T10:10:41.968Z,17.80
2018-04-15T10:13:16.756Z,17.70
2018-04-15T10:15:45.404Z,17.70
2018-04-15T10:18:13.912Z,17.50
2018-04-15T10:20:43.337Z,18.00
2018-04-15T10:23:11.532Z,18.00
2018-04-15T10:25:39.814Z,17.80
2018-04-15T10:28:08.051Z,17.60
2018-04-15T10:30:37.101Z,17.20
2018-04-15T10:33:05.373Z,17.20
2018-04-15T10:35:34.377Z,17.40
2018-04-15T10:38:02.597Z,17.50
2018-04-15T10:40:30.820Z,17.80
2018-04-15T10:42:59.185Z,17.80
2018-04-15T10:45:27.387Z,17.70
2018-04-15T10:47:55.606Z,17.80
2018-04-15T10:50:24.071Z,18.20
2018-04-15T10:52:52.313Z,18.50
2018-04-15T10:55:20.582Z,18.30
2018-04-15T10:57:48.806Z,18.20
2018-04-15T11:00:17.045Z,18.20
2018-04-15T11:02:45.457Z,18.50
2018-04-15T11:05:15.230Z,18.10
2018-04-15T11:07:43.457Z,18.10
2018-04-15T11:10:12.461Z,18.00
2018-04-15T11:12:41.569Z,18.20
2018-04-15T11:15:10.554Z,18.30
2018-04-15T11:17:39.519Z,18.50
2018-04-15T11:20:07.775Z,18.50
2018-04-15T11:22:36.020Z,18.60
2018-04-15T11:25:04.384Z,18.70
2018-04-15T11:27:32.644Z,18.70
2018-04-15T11:30:00.850Z,18.80
2018-04-15T11:32:29.850Z,18.90
2018-04-15T11:34:58.864Z,18.90
2018-04-15T11:37:27.122Z,18.90
2018-04-15T11:39:55.395Z,18.80
2018-04-15T11:42:23.644Z,18.70
2018-04-15T11:44:53.515Z,18.20
2018-04-15T11:47:21.722Z,18.20
2018-04-15T11:49:49.977Z,18.20
2018-04-15T11:52:19.752Z,18.40
2018-04-15T11:54:48.019Z,18.40
2018-04-15T11:57:16.293Z,18.20
2018-04-15T11:59:45.297Z,18.60
2018-04-15T12:02:13.573Z,18.60
2018-04-15T12:04:41.875Z,18.50
2018-04-15T12:07:11.116Z,18.10
2018-04-15T12:09:40.972Z,18.10
2018-04-15T12:12:09.250Z,18.10
2018-04-15T12:14:38.204Z,18.60
2018-04-15T12:17:07.256Z,18.80
2018-04-15T12:19:35.557Z,18.80
2018-04-15T12:22:04.678Z,19.10
2018-04-15T12:24:33.657Z,19.40
2018-04-15T12:27:02.025Z,19.40
2018-04-15T12:29:30.261Z,19.50
2018-04-15T12:31:58.464Z,19.30
2018-04-15T12:34:26.780Z,19.20
2018-04-15T12:36:55.010Z,18.60
2018-04-15T12:39:23.957Z,18.10
2018-04-15T12:41:52.278Z,18.10
2018-04-15T12:44:20.529Z,18.00
2018-04-15T12:46:48.775Z,17.90
2018-04-15T12:49:17.001Z,17.70
2018-04-15T12:51:45.257Z,17.80
2018-04-15T12:54:13.456Z,17.70
2018-04-15T12:56:41.734Z,17.70
2018-04-15T12:59:10.727Z,17.90
2018-04-15T13:01:39.349Z,17.90
2018-04-15T13:04:07.638Z,17.80
2018-04-15T13:06:35.859Z,17.90
2018-04-15T13:09:04.295Z,17.80
2018-04-15T13:11:32.511Z,17.70
2018-04-15T13:14:01.501Z,17.30
2018-04-15T13:16:30.485Z,17.30
2018-04-15T13:18:58.729Z,17.20
2018-04-15T13:21:28.007Z,17.30
2018-04-15T13:23:56.272Z,17.30
2018-04-15T13:26:25.256Z,17.20
2018-04-15T13:28:54.557Z,17.10
2018-04-15T13:31:23.569Z,17.10
2018-04-15T13:33:52.546Z,17.20
2018-04-15T13:36:21.526Z,17.40
2018-04-15T13:38:50.605Z,17.70
2018-04-15T13:41:18.868Z,17.70
2018-04-15T13:43:47.083Z,17.90
2018-04-15T13:46:15.339Z,18.20
2018-04-15T13:48:45.040Z,18.30
2018-04-15T13:51:13.426Z,18.50
2018-04-15T13:53:42.482Z,18.90
2018-04-15T13:56:10.758Z,18.90
2018-04-15T13:58:39.016Z,19.10
2018-04-15T14:01:07.346Z,19.30
2018-04-15T14:03:35.580Z,19.40
2018-04-15T14:06:03.905Z,19.40
2018-04-15T14:08:32.172Z,19.20
2018-04-15T14:11:00.467Z,19.00
2018-04-15T14:13:30.229Z,18.60
2018-04-15T14:15:59.208Z,18.40
2018-04-15T14:18:27.552Z,18.40
2018-04-15T14:20:55.838Z,18.50
2018-04-15T14:23:24.158Z,18.40
2018-04-15T14:25:53.133Z,18.10
2018-04-15T14:28:22.181Z,18.20
2018-04-15T14:30:50.659Z,18.20
2018-04-15T14:33:18.951Z,18.30
2018-04-15T14:35:47.241Z,18.20
2018-04-15T14:38:16.025Z,18.30
2018-04-15T14:40:44.319Z,18.30
2018-04-15T14:43:14.045Z,18.30
2018-04-15T14:45:42.395Z,18.20
2018-04-15T14:48:11.380Z,18.30
2018-04-15T14:50:39.681Z,18.30
2018-04-15T14:53:08.809Z,18.20
2018-04-15T14:55:37.154Z,18.20
2018-04-15T14:58:06.909Z,17.90
2018-04-15T15:00:35.879Z,17.80
2018-04-15T15:03:04.390Z,17.80
2018-04-15T15:05:32.668Z,17.60
2018-04-15T15:08:01.680Z,17.50
2018-04-15T15:10:30.975Z,17.60
2018-04-15T15:12:59.930Z,17.60
2018-04-15T15:15:28.185Z,17.60
2018-04-15T15:17:56.465Z,17.70
2018-04-15T15:20:24.948Z,17.80
2018-04-15T15:22:54.694Z,17.90
2018-04-15T15:25:23.020Z,17.90
2018-04-15T15:27:51.229Z,17.90
2018-04-15T15:30:20.992Z,18.10
2018-04-15T15:32:49.404Z,18.10
2018-04-15T15:35:19.179Z,18.10
2018-04-15T15:37:48.231Z,18.10
2018-04-15T15:40:16.460Z,18.10
2018-04-15T15:42:45.465Z,18.30
2018-04-15T15:45:13.832Z,18.20
2018-04-15T15:47:42.794Z,18.30
2018-04-15T15:50:12.526Z,18.30
2018-04-15T15:52:41.553Z,18.30
2018-04-15T15:55:09.736Z,18.40
2018-04-15T15:57:37.961Z,18.40
2018-04-15T16:00:06.333Z,18.40
2018-04-15T16:02:36.219Z,18.50
2018-04-15T16:05:04.459Z,18.50
2018-04-15T16:07:32.781Z,18.50
2018-04-15T16:10:00.996Z,18.60
2018-04-15T16:12:30.665Z,18.90
2018-04-15T16:14:58.873Z,18.80
2018-04-15T16:17:27.163Z,18.90
2018-04-15T16:19:56.312Z,18.80
2018-04-15T16:22:24.519Z,18.80
2018-04-15T16:24:53.599Z,18.70
2018-04-15T16:27:21.821Z,18.70
2018-04-15T16:29:50.986Z,18.50
2018-04-15T16:32:20.787Z,18.50
2018-04-15T16:34:49.026Z,18.50
2018-04-15T16:37:17.267Z,18.50
2018-04-15T16:39:45.561Z,18.40
2018-04-15T16:42:14.672Z,18.10
2018-04-15T16:44:42.925Z,18.10
2018-04-15T16:47:11.233Z,18.00
2018-04-15T16:49:39.538Z,18.00
2018-04-15T16:52:08.547Z,17.60
2018-04-15T16:54:36.938Z,17.60
2018-04-15T16:57:05.193Z,17.40
2018-04-15T16:59:33.459Z,17.20
2018-04-15T17:02:01.676Z,17.20
2018-04-15T17:04:29.943Z,17.10
2018-04-15T17:06:59.337Z,16.90
2018-04-15T17:09:27.542Z,16.90
2018-04-15T17:11:57.325Z,16.80
2018-04-15T17:14:26.338Z,16.70
2018-04-15T17:16:54.688Z,16.70
2018-04-15T17:19:23.067Z,16.60
2018-04-15T17:21:51.323Z,16.50
2018-04-15T17:24:19.539Z,16.50
2018-04-15T17:26:48.643Z,16.40
2018-04-15T17:29:16.927Z,16.30
2018-04-15T17:31:46.717Z,16.20
2018-04-15T17:34:15.061Z,16.20
2018-04-15T17:36:43.262Z,16.20
2018-04-15T17:39:11.443Z,16.00
2018-04-15T17:41:39.835Z,16.00
2018-04-15T17:44:08.069Z,15.80
2018-04-15T17:46:37.110Z,15.80
2018-04-15T17:49:09.079Z,15.80
2018-04-15T17:51:38.178Z,15.70
2018-04-15T17:54:09.080Z,15.70
2018-04-15T17:56:37.416Z,15.70
2018-04-15T17:59:07.135Z,15.60
2018-04-15T18:01:36.373Z,15.60
2018-04-15T18:04:04.572Z,15.60
2018-04-15T18:06:32.959Z,15.60
2018-04-15T18:09:01.221Z,15.50
2018-04-15T18:11:29.438Z,15.50
2018-04-15T18:13:58.503Z,15.60
2018-04-15T18:16:26.797Z,15.50
2018-04-15T18:18:55.057Z,15.50
2018-04-15T18:21:23.353Z,15.50
2018-04-15T18:23:51.641Z,15.40
2018-04-15T18:26:20.460Z,15.40
2018-04-15T18:29:07.312Z,15.30
2018-04-15T18:31:59.614Z,15.30
2018-04-15T18:37:39.839Z,15.10
2018-04-15T18:40:10.811Z,15.10
2018-04-15T18:42:39.071Z,15.00
2018-04-15T18:45:07.288Z,14.90
2018-04-15T18:47:35.640Z,14.90
2018-04-15T18:50:04.851Z,14.70
2018-04-15T18:52:33.849Z,14.70
2018-04-15T18:55:02.836Z,14.60
2018-04-15T18:57:31.183Z,14.60
2018-04-15T18:59:59.571Z,14.60
2018-04-15T19:02:27.793Z,14.50
2018-04-15T19:04:58.740Z,14.40
2018-04-15T19:07:29.749Z,14.30
2018-04-15T19:09:58.115Z,14.20
2018-04-15T19:12:26.315Z,14.20
2018-04-15T19:14:56.398Z,14.00
2018-04-15T19:17:24.628Z,14.00
2018-04-15T19:19:53.600Z,14.00
2018-04-15T19:22:21.790Z,13.90
2018-04-15T19:24:50.796Z,14.00
2018-04-15T19:27:19.960Z,14.00
2018-04-15T19:29:48.168Z,14.00
2018-04-15T19:32:16.510Z,14.00
2018-04-15T19:34:44.879Z,14.00
2018-04-15T19:37:13.105Z,14.00
2018-04-15T19:39:42.324Z,14.10
2018-04-15T19:42:10.556Z,14.10
2018-04-15T19:44:38.811Z,14.10
2018-04-15T19:47:07.215Z,14.10
2018-04-15T19:49:35.575Z,14.20
2018-04-15T19:52:04.079Z,14.20
2018-04-15T19:54:32.304Z,14.20
2018-04-15T19:57:01.156Z,14.20
2018-04-15T19:59:29.809Z,14.20
2018-04-15T20:01:58.042Z,14.20
2018-04-15T20:04:27.070Z,14.00
2018-04-15T20:06:56.183Z,14.00
2018-04-15T20:09:24.421Z,13.90
2018-04-15T20:11:52.705Z,13.90
2018-04-15T20:14:21.313Z,13.90
2018-04-15T20:16:50.407Z,13.80
2018-04-15T20:19:18.715Z,13.80
2018-04-15T20:21:46.986Z,13.70
2018-04-15T20:24:15.245Z,13.70
2018-04-15T20:26:43.636Z,13.70
2018-04-15T20:29:11.856Z,13.60
2018-04-15T20:31:41.615Z,13.50
2018-04-15T20:34:13.027Z,13.50
2018-04-15T20:36:41.919Z,13.50
2018-04-15T20:39:11.878Z,13.50
2018-04-15T20:41:40.180Z,13.50
2018-04-15T20:44:08.498Z,13.50
2018-04-15T20:46:36.762Z,13.40
2018-04-15T20:49:04.971Z,13.30
2018-04-15T20:51:33.964Z,13.10
2018-04-15T20:54:17.572Z,13.00
2018-04-15T20:56:45.776Z,13.00
2018-04-15T20:59:14.213Z,12.90
2018-04-15T21:01:43.245Z,12.80
2018-04-15T21:04:11.493Z,12.80
2018-04-15T21:06:41.422Z,12.60
2018-04-15T21:09:10.563Z,12.50
2018-04-15T21:11:38.883Z,12.50
2018-04-15T21:14:08.628Z,12.40
2018-04-15T21:16:37.491Z,12.40
2018-04-15T21:19:05.999Z,12.40
2018-04-15T21:21:34.465Z,12.30
2018-04-15T21:24:03.488Z,12.30
2018-04-15T21:26:32.026Z,12.20
2018-04-15T21:29:00.233Z,12.20
2018-04-15T21:31:28.591Z,12.10
2018-04-15T21:33:56.801Z,12.00
2018-04-15T21:36:25.105Z,12.00
2018-04-15T21:38:53.395Z,12.00
2018-04-15T21:41:21.695Z,12.00
2018-04-15T21:43:49.925Z,12.00
2018-04-15T21:46:18.357Z,12.00
2018-04-15T21:48:46.813Z,11.90
2018-04-15T21:51:15.081Z,11.90
2018-04-15T21:53:43.332Z,11.90
2018-04-15T21:56:12.393Z,11.90
2018-04-15T21:58:40.662Z,11.90
2018-04-15T22:01:08.948Z,11.90
2018-04-15T22:03:37.281Z,11.90
2018-04-15T22:06:06.370Z,11.80
2018-04-15T22:08:34.602Z,11.80
2018-04-15T22:11:03.665Z,11.80
2018-04-15T22:13:32.034Z,11.80
2018-04-15T22:16:00.430Z,11.80
2018-04-15T22:18:28.812Z,11.80
2018-04-15T22:20:57.910Z,11.80
2018-04-15T22:23:26.275Z,11.90
2018-04-15T22:25:54.498Z,11.80
2018-04-15T22:28:22.735Z,11.70
2018-04-15T22:30:51.107Z,11.70
2018-04-15T22:33:19.395Z,11.60
2018-04-15T22:35:47.624Z,11.60
2018-04-15T22:38:16.609Z,11.60
2018-04-15T22:40:45.626Z,11.70
2018-04-15T22:43:14.764Z,11.70
2018-04-15T22:45:43.040Z,11.70
2018-04-15T22:48:11.326Z,11.60
2018-04-15T22:50:39.584Z,11.60
2018-04-15T22:53:07.894Z,11.60
2018-04-15T22:55:36.254Z,11.60
2018-04-15T22:58:04.642Z,11.60
2018-04-15T23:00:32.873Z,11.60
2018-04-15T23:03:01.480Z,11.60
2018-04-15T23:05:29.776Z,11.60
2018-04-15T23:07:58.029Z,11.50
2018-04-15T23:10:26.387Z,11.60
2018-04-15T23:12:54.614Z,11.60
2018-04-15T23:15:22.999Z,11.50
2018-04-15T23:17:51.211Z,11.50
2018-04-15T23:20:19.419Z,11.50
2018-04-15T23:22:49.006Z,11.40
2018-04-15T23:25:17.980Z,11.40
2018-04-15T23:27:47.218Z,11.40
2018-04-15T23:30:16.164Z,11.30
2018-04-15T23:32:44.398Z,11.30
2018-04-15T23:35:12.644Z,11.30
2018-04-15T23:37:40.849Z,11.20
2018-04-15T23:40:10.018Z,11.10
2018-04-15T23:42:39.165Z,11.00
2018-04-15T23:45:08.130Z,11.00
2018-04-15T23:47:37.240Z,10.90
2018-04-15T23:50:05.653Z,10.90
2018-04-15T23:52:33.918Z,10.90
2018-04-15T23:55:02.121Z,10.70
2018-04-15T23:57:30.474Z,10.70
2018-04-15T23:59:58.674Z,10.70
